Time;durP1;ratioP1;P1;durP2;ratioP2;P2;SDS_P1;SDS_P2;PMS_P1;PMS_P2;Temp;Humidity;BMP_temperature;BMP_pressure;BME280_temperature;BME280_humidity;BME280_pressure;Samples;Min_cycle;Max_cycle;Signal;HPM_P1;HPM_P2
2023/11/26 00:02:34;;;;;;;3.88;2.25;;;;;;;;;;10299844;28;20556;-73
2023/11/26 00:07:38;;;;;;;3.63;2.20;;;;;;;;;;10297841;28;20039;-73
2023/11/26 00:12:42;;;;;;;3.88;2.50;;;;;;;;;;10309785;28;20043;-73
2023/11/26 00:17:45;;;;;;;3.53;1.92;;;;;;;;;;10297855;28;20064;-73
2023/11/26 00:22:50;;;;;;;3.80;2.00;;;;;;;;;;10300597;28;20547;-73
2023/11/26 00:27:53;;;;;;;3.20;2.00;;;;;;;;;;10298988;28;20042;-73
2023/11/26 00:32:56;;;;;;;3.10;2.13;;;;;;;;;;10281249;28;20058;-73
2023/11/26 00:38:01;;;;;;;3.38;1.90;;;;;;;;;;10279211;28;20035;-73
2023/11/26 00:43:04;;;;;;;3.10;2.00;;;;;;;;;;10278501;28;20141;-73
2023/11/26 00:48:07;;;;;;;4.00;2.30;;;;;;;;;;10303581;28;20955;-73
2023/11/26 00:53:13;;;;;;;4.28;2.70;;;;;;;;;;10285763;28;20046;-73
2023/11/26 00:58:17;;;;;;;5.40;3.30;;;;;;;;;;10305024;28;20054;-73
2023/11/26 01:03:20;;;;;;;7.90;3.78;;;;;;;;;;10300102;28;20057;-73
2023/11/26 01:08:25;;;;;;;5.70;3.25;;;;;;;;;;10311577;28;20046;-73
2023/11/26 01:13:29;;;;;;;2.55;1.80;;;;;;;;;;10303148;28;20106;-73
2023/11/26 01:18:32;;;;;;;1.00;0.90;;;;;;;;;;10305413;28;20058;-73
2023/11/26 01:23:37;;;;;;;1.38;0.93;;;;;;;;;;10312485;28;20606;-74
2023/11/26 01:28:40;;;;;;;0.80;0.80;;;;;;;;;;10303482;28;20046;-74
2023/11/26 01:33:44;;;;;;;2.30;1.02;;;;;;;;;;10301647;28;20098;-73
2023/11/26 01:38:49;;;;;;;1.38;0.93;;;;;;;;;;10311432;28;20145;-74
2023/11/26 01:43:52;;;;;;;1.50;1.15;;;;;;;;;;10303981;28;20499;-73
2023/11/26 01:48:55;;;;;;;1.85;1.10;;;;;;;;;;10311329;28;20656;-73
2023/11/26 01:54:01;;;;;;;0.93;0.90;;;;;;;;;;10311189;28;20050;-73
2023/11/26 01:59:05;;;;;;;1.17;1.08;;;;;;;;;;10314835;28;20497;-73
2023/11/26 02:04:08;;;;;;;1.30;1.20;;;;;;;;;;10303187;28;20077;-73
2023/11/26 02:09:16;;;;;;;1.00;0.90;;;;;;;;;;10301474;28;20085;-73
2023/11/26 02:14:20;;;;;;;1.00;0.93;;;;;;;;;;10289175;28;20141;-73
2023/11/26 02:19:27;;;;;;;1.00;0.90;;;;;;;;;;10305940;28;20523;-74
2023/11/26 02:24:37;;;;;;;0.98;0.82;;;;;;;;;;10290761;28;20038;-73
2023/11/26 02:29:41;;;;;;;1.10;1.00;;;;;;;;;;10308613;28;20129;-73
2023/11/26 02:34:44;;;;;;;2.15;1.02;;;;;;;;;;10309649;28;20125;-73
2023/11/26 02:39:50;;;;;;;1.35;1.10;;;;;;;;;;10282593;28;20496;-73
2023/11/26 02:44:54;;;;;;;1.17;1.00;;;;;;;;;;10312015;28;20056;-73
2023/11/26 02:49:57;;;;;;;2.17;1.30;;;;;;;;;;10280611;28;20076;-73
2023/11/26 02:55:01;;;;;;;2.42;1.42;;;;;;;;;;10303021;28;20057;-73
2023/11/26 03:00:15;;;;;;;2.70;1.67;;;;;;;;;;10291083;28;20482;-73
2023/11/26 03:05:19;;;;;;;2.88;1.48;;;;;;;;;;10300588;28;20305;-73
2023/11/26 03:15:45;;;;;;;2.88;1.45;;;;;;;;;;10302453;28;20043;-73
2023/11/26 03:20:52;;;;;;;2.38;1.27;;;;;;;;;;10306736;28;20084;-73
2023/11/26 03:25:56;;;;;;;2.25;1.65;;;;;;;;;;10299278;28;20050;-73
2023/11/26 03:31:00;;;;;;;4.63;1.30;;;;;;;;;;10302132;28;20045;-73
2023/11/26 03:36:06;;;;;;;1.80;1.27;;;;;;;;;;10306820;28;20050;-73
2023/11/26 03:41:11;;;;;;;1.92;1.30;;;;;;;;;;10272707;28;20062;-73
2023/11/26 03:46:14;;;;;;;1.50;1.40;;;;;;;;;;10298006;28;20086;-73
2023/11/26 03:51:20;;;;;;;1.80;1.50;;;;;;;;;;10276781;28;20468;-73
2023/11/26 03:56:28;;;;;;;1.67;1.52;;;;;;;;;;10336465;22;20545;-75
2023/11/26 04:01:31;;;;;;;1.75;1.45;;;;;;;;;;10429528;28;20044;-75
2023/11/26 04:06:35;;;;;;;3.00;2.00;;;;;;;;;;10439046;28;20051;-75
2023/11/26 04:11:39;;;;;;;3.22;2.22;;;;;;;;;;10462030;28;20249;-75
2023/11/26 04:16:48;;;;;;;2.85;1.90;;;;;;;;;;10455958;28;20124;-75
2023/11/26 04:21:52;;;;;;;3.22;1.88;;;;;;;;;;10456851;28;20498;-75
2023/11/26 04:26:57;;;;;;;3.38;2.08;;;;;;;;;;10456631;28;20127;-75
2023/11/26 04:32:00;;;;;;;3.22;2.00;;;;;;;;;;10462341;28;20133;-75
2023/11/26 04:37:06;;;;;;;2.53;1.65;;;;;;;;;;10439087;28;20063;-75
2023/11/26 04:42:11;;;;;;;3.03;1.60;;;;;;;;;;10469229;28;20040;-75
2023/11/26 04:47:14;;;;;;;2.80;1.70;;;;;;;;;;10454886;28;20052;-75
2023/11/26 04:52:18;;;;;;;2.30;1.73;;;;;;;;;;10472879;28;20059;-75
2023/11/26 04:57:23;;;;;;;2.20;1.73;;;;;;;;;;10469993;28;20071;-75
2023/11/26 05:02:31;;;;;;;2.80;2.13;;;;;;;;;;10466786;28;20049;-75
2023/11/26 05:07:36;;;;;;;3.97;1.98;;;;;;;;;;10464119;28;20150;-75
2023/11/26 05:12:43;;;;;;;2.43;2.00;;;;;;;;;;10479300;28;20041;-75
2023/11/26 05:17:47;;;;;;;;;;;;;;;;;;10470197;28;20084;-76
2023/11/26 05:22:50;;;;;;;2.17;1.83;;;;;;;;;;10488265;28;19925;-75
2023/11/26 05:27:55;;;;;;;3.35;1.83;;;;;;;;;;10469353;28;20048;-75
2023/11/26 05:32:59;;;;;;;2.53;1.73;;;;;;;;;;10467789;28;20099;-75
2023/11/26 05:38:03;;;;;;;3.03;1.92;;;;;;;;;;10464810;28;20125;-76
2023/11/26 05:43:08;;;;;;;2.38;1.80;;;;;;;;;;10478311;28;20044;-75
2023/11/26 05:48:12;;;;;;;1.85;1.60;;;;;;;;;;10466961;28;20052;-75
2023/11/26 05:53:15;;;;;;;1.65;1.42;;;;;;;;;;10469141;28;20068;-75
2023/11/26 05:58:21;;;;;;;1.73;1.33;;;;;;;;;;10463388;28;20033;-75
2023/11/26 06:03:24;;;;;;;2.47;1.50;;;;;;;;;;10472908;28;20456;-75
2023/11/26 06:08:27;;;;;;;1.48;1.17;;;;;;;;;;10466734;28;20080;-75
2023/11/26 06:13:32;;;;;;;2.30;1.20;;;;;;;;;;10472562;28;20053;-75
2023/11/26 06:18:36;;;;;;;1.30;1.20;;;;;;;;;;10477098;28;20442;-75
2023/11/26 06:23:39;;;;;;;1.55;1.23;;;;;;;;;;10471069;28;20061;-75
2023/11/26 06:28:44;;;;;;;1.48;1.30;;;;;;;;;;10471620;28;20506;-75
2023/11/26 06:33:47;;;;;;;1.65;1.30;;;;;;;;;;10472354;28;20052;-75
2023/11/26 06:38:52;;;;;;;2.78;1.50;;;;;;;;;;10470752;28;20053;-75
2023/11/26 06:43:57;;;;;;;2.40;1.58;;;;;;;;;;10469172;28;20061;-75
2023/11/26 06:49:00;;;;;;;1.85;1.40;;;;;;;;;;10475485;28;20090;-75
2023/11/26 06:54:04;;;;;;;3.58;1.77;;;;;;;;;;10468508;28;20460;-75
2023/11/26 06:59:09;;;;;;;1.63;1.25;;;;;;;;;;10467904;28;20079;-75
2023/11/26 07:04:12;;;;;;;1.50;1.05;;;;;;;;;;10441435;28;20049;-75
2023/11/26 07:09:16;;;;;;;1.23;0.90;;;;;;;;;;10470178;28;20518;-76
2023/11/26 07:14:21;;;;;;;1.10;0.90;;;;;;;;;;10465256;28;20544;-75
2023/11/26 07:19:24;;;;;;;1.27;0.98;;;;;;;;;;10442209;28;20037;-75
2023/11/26 07:24:28;;;;;;;1.83;1.00;;;;;;;;;;10445585;28;20072;-75
2023/11/26 07:29:35;;;;;;;2.53;1.40;;;;;;;;;;10438509;28;20049;-75
2023/11/26 07:34:38;;;;;;;1.85;1.30;;;;;;;;;;10430762;28;20052;-75
2023/11/26 07:39:42;;;;;;;1.70;1.42;;;;;;;;;;10438925;28;20080;-75
2023/11/26 07:44:47;;;;;;;2.30;1.48;;;;;;;;;;10441126;28;20049;-75
2023/11/26 07:49:50;;;;;;;1.70;1.17;;;;;;;;;;10449053;28;20117;-75
2023/11/26 07:54:54;;;;;;;2.05;1.00;;;;;;;;;;10443591;28;20137;-75
2023/11/26 08:00:06;;;;;;;2.10;1.10;;;;;;;;;;10435408;28;20041;-75
2023/11/26 08:05:19;;;;;;;1.30;1.20;;;;;;;;;;10451974;28;20049;-75
2023/11/26 08:10:26;;;;;;;2.63;1.30;;;;;;;;;;10447320;28;20049;-75
2023/11/26 08:15:31;;;;;;;1.23;0.88;;;;;;;;;;10459544;28;20134;-75
2023/11/26 08:20:35;;;;;;;2.28;0.82;;;;;;;;;;10466405;28;20788;-75
2023/11/26 08:25:39;;;;;;;1.85;0.80;;;;;;;;;;10440857;28;20539;-74
2023/11/26 08:30:55;;;;;;;1.75;0.88;;;;;;;;;;10445558;28;20037;-74
2023/11/26 08:43:10;;;;;;;3.38;1.00;;;;;;;;;;9970851;29;20509;-75
2023/11/26 08:49:18;;;;;;;2.33;1.17;;;;;;;;;;10313292;28;20057;-74
2023/11/26 09:02:08;;;;;;;;;;;;;;;;;;;;;
2023/11/26 09:46:12;;;;;;;2.08;1.38;;;;;;;;;;10296110;28;20043;-74
2023/11/26 09:57:50;;;;;;;4.45;2.22;;;;;;;;;;10354203;23;20048;-74
2023/11/26 10:03:02;;;;;;;4.05;1.60;;;;;;;;;;10433895;28;20524;-73
2023/11/26 10:08:07;;;;;;;2.03;1.38;;;;;;;;;;10440688;28;20091;-74
2023/11/26 10:13:11;;;;;;;4.53;1.88;;;;;;;;;;10435764;28;20045;-74
2023/11/26 10:18:18;;;;;;;3.67;1.58;;;;;;;;;;10435178;28;20053;-74
2023/11/26 10:23:28;;;;;;;4.95;2.72;;;;;;;;;;10433324;28;20049;-74
2023/11/26 10:28:32;;;;;;;4.68;2.40;;;;;;;;;;10431573;28;20587;-74
2023/11/26 10:33:39;;;;;;;3.25;2.42;;;;;;;;;;10441734;28;20064;-74
2023/11/26 10:38:43;;;;;;;3.70;2.22;;;;;;;;;;10428654;28;20375;-74
2023/11/26 10:43:47;;;;;;;8.02;3.78;;;;;;;;;;10423021;28;20080;-74
2023/11/26 10:49:00;;;;;;;5.18;2.42;;;;;;;;;;10426830;28;20128;-74
2023/11/26 10:54:07;;;;;;;4.13;2.25;;;;;;;;;;10418874;28;20053;-73
2023/11/26 10:59:17;;;;;;;7.40;3.83;;;;;;;;;;10429991;28;20072;-74
2023/11/26 11:04:24;;;;;;;6.45;3.08;;;;;;;;;;10427955;28;20053;-74
2023/11/26 11:09:37;;;;;;;6.07;4.20;;;;;;;;;;10434105;28;20049;-74
2023/11/26 11:14:41;;;;;;;10.02;4.20;;;;;;;;;;10395446;28;20111;-74
2023/11/26 11:19:50;;;;;;;8.70;4.55;;;;;;;;;;10431265;28;20627;-74
2023/11/26 11:25:06;;;;;;;12.15;5.47;;;;;;;;;;10426635;28;20417;-74
2023/11/26 11:30:49;;;;;;;8.20;4.60;;;;;;;;;;10428860;28;20048;-74
2023/11/26 11:35:56;;;;;;;8.25;5.03;;;;;;;;;;10421218;28;20084;-74
2023/11/26 11:41:02;;;;;;;7.72;4.95;;;;;;;;;;10446191;28;20057;-74
2023/11/26 11:46:44;;;;;;;6.40;4.18;;;;;;;;;;10448165;28;20049;-74
2023/11/26 11:51:50;;;;;;;7.00;4.63;;;;;;;;;;10426387;28;20049;-74
2023/11/26 11:57:00;;;;;;;9.32;5.35;;;;;;;;;;10436709;28;20055;-74
2023/11/26 12:02:06;;;;;;;9.88;5.50;;;;;;;;;;10436257;28;20409;-74
2023/11/26 12:07:11;;;;;;;11.05;5.90;;;;;;;;;;10426457;28;20047;-74
2023/11/26 12:12:19;;;;;;;8.07;5.25;;;;;;;;;;10441247;28;20399;-74
2023/11/26 12:17:22;;;;;;;9.55;5.35;;;;;;;;;;10413839;28;20049;-74
2023/11/26 12:22:27;;;;;;;9.25;4.70;;;;;;;;;;10415351;28;20045;-74
2023/11/26 12:27:33;;;;;;;9.80;5.68;;;;;;;;;;10398935;28;20053;-74
2023/11/26 12:32:36;;;;;;;7.30;4.95;;;;;;;;;;10443426;28;20426;-74
2023/11/26 12:37:43;;;;;;;11.65;5.43;;;;;;;;;;10418495;28;20399;-74
2023/11/26 12:42:46;;;;;;;;;;;;;;;;;;10427463;28;20073;-74
2023/11/26 12:47:51;;;;;;;7.65;5.20;;;;;;;;;;10426718;28;20377;-74
2023/11/26 12:52:56;;;;;;;10.70;5.53;;;;;;;;;;10432682;28;20049;-74
2023/11/26 12:57:59;;;;;;;7.55;4.88;;;;;;;;;;10429933;28;20049;-74
2023/11/26 13:03:05;;;;;;;10.20;5.28;;;;;;;;;;10423396;28;20073;-74
2023/11/26 13:08:20;;;;;;;7.75;4.85;;;;;;;;;;10439367;28;20044;-74
2023/11/26 13:13:26;;;;;;;9.30;4.38;;;;;;;;;;10436585;28;20042;-74
2023/11/26 13:18:30;;;;;;;11.02;5.50;;;;;;;;;;10437358;28;20488;-74
2023/11/26 13:23:35;;;;;;;7.05;4.40;;;;;;;;;;10437683;28;20050;-74
2023/11/26 13:28:39;;;;;;;7.72;4.47;;;;;;;;;;10420971;28;20148;-74
2023/11/26 13:33:43;;;;;;;9.73;4.03;;;;;;;;;;10425057;28;20037;-74
2023/11/26 13:38:49;;;;;;;6.88;4.25;;;;;;;;;;10438980;28;20059;-74
2023/11/26 13:43:53;;;;;;;7.78;4.18;;;;;;;;;;10442273;28;20056;-73
2023/11/26 13:48:59;;;;;;;5.25;2.78;;;;;;;;;;10435351;28;20045;-73
2023/11/26 13:54:04;;;;;;;5.10;3.13;;;;;;;;;;10417834;28;20044;-74
2023/11/26 13:59:07;;;;;;;5.75;3.05;;;;;;;;;;10414873;28;20049;-74
2023/11/26 14:04:10;;;;;;;4.95;2.92;;;;;;;;;;10412185;28;20091;-74
2023/11/26 14:09:17;;;;;;;4.72;2.42;;;;;;;;;;10392315;28;20041;-74
2023/11/26 14:14:21;;;;;;;4.47;2.67;;;;;;;;;;10414020;28;20506;-74
2023/11/26 14:19:24;;;;;;;4.28;2.70;;;;;;;;;;10415853;28;20471;-74
2023/11/26 14:24:29;;;;;;;5.00;2.75;;;;;;;;;;10417507;28;20045;-74
2023/11/26 14:29:32;;;;;;;6.38;2.95;;;;;;;;;;10416914;28;20080;-74
2023/11/26 14:34:36;;;;;;;5.82;3.70;;;;;;;;;;10414340;28;20053;-74
2023/11/26 14:39:40;;;;;;;6.20;3.90;;;;;;;;;;10413879;28;20057;-74
2023/11/26 14:44:44;;;;;;;4.43;2.72;;;;;;;;;;10410229;28;20061;-74
2023/11/26 14:49:47;;;;;;;10.68;4.60;;;;;;;;;;10415637;28;20069;-74
2023/11/26 14:54:52;;;;;;;4.75;2.92;;;;;;;;;;10409003;28;20438;-74
2023/11/26 14:59:56;;;;;;;4.60;2.55;;;;;;;;;;10389090;28;20514;-74
2023/11/26 15:04:59;;;;;;;7.22;3.63;;;;;;;;;;10402724;28;20048;-74
2023/11/26 15:10:05;;;;;;;5.40;3.20;;;;;;;;;;10417548;28;20128;-74
2023/11/26 15:15:09;;;;;;;8.20;4.07;;;;;;;;;;10422310;28;20049;-73
2023/11/26 15:20:13;;;;;;;6.45;3.83;;;;;;;;;;10437473;28;20053;-74
2023/11/26 15:25:18;;;;;;;5.03;2.88;;;;;;;;;;10411244;28;20100;-74
2023/11/26 15:30:21;;;;;;;11.43;5.47;;;;;;;;;;10419996;28;20100;-74
2023/11/26 15:35:24;;;;;;;9.38;4.53;;;;;;;;;;10398416;28;20065;-74
2023/11/26 15:40:29;;;;;;;6.05;3.25;;;;;;;;;;10422146;28;20059;-74
2023/11/26 15:45:33;;;;;;;4.97;2.80;;;;;;;;;;10415321;28;20518;-74
2023/11/26 15:50:36;;;;;;;5.43;3.13;;;;;;;;;;10417198;28;20064;-74
2023/11/26 16:01:26;;;;;;;3.97;2.40;;;;;;;;;;10359905;28;20054;-73
2023/11/26 16:07:13;;;;;;;4.13;2.13;;;;;;;;;;10304101;28;20385;-73
2023/11/26 16:13:33;;;;;;;;;;;;;;;;;;;;;
2023/11/26 16:25:19;;;;;;;17.00;7.28;;;;;;;;;;10326071;28;20054;-73
2023/11/26 16:31:35;;;;;;;;;;;;;;;;;;;;;
2023/11/26 16:43:26;;;;;;;6.18;3.10;;;;;;;;;;10149782;28;20124;-72
2023/11/26 16:48:29;;;;;;;5.13;3.00;;;;;;;;;;10330484;28;20050;-73
2023/11/26 17:30:08;;;;;;;4.65;3.15;;;;;;;;;;2901843;26;20053;-73
2023/11/26 17:52:06;;;;;;;4.45;2.47;;;;;;;;;;11429480;22;20033;-82
2023/11/26 17:57:12;;;;;;;3.83;2.67;;;;;;;;;;10373371;28;20053;-82
2023/11/26 18:02:15;;;;;;;5.60;2.90;;;;;;;;;;10367127;28;20085;-82
2023/11/26 18:07:20;;;;;;;3.55;2.65;;;;;;;;;;10359124;28;20079;-83
2023/11/26 18:12:23;;;;;;;3.97;2.58;;;;;;;;;;10363416;28;20450;-83
2023/11/26 18:17:27;;;;;;;4.25;2.83;;;;;;;;;;10356631;28;20081;-82
2023/11/26 18:22:31;;;;;;;6.70;3.90;;;;;;;;;;10364932;28;20058;-82
2023/11/26 18:27:35;;;;;;;8.13;4.10;;;;;;;;;;10346412;28;20148;-82
2023/11/26 18:32:39;;;;;;;6.32;3.40;;;;;;;;;;10347464;28;20081;-82
2023/11/26 18:37:44;;;;;;;9.77;4.55;;;;;;;;;;10337666;28;20129;-83
2023/11/26 18:42:49;;;;;;;8.43;4.07;;;;;;;;;;10347175;28;20185;-84
2023/11/26 18:47:52;;;;;;;7.47;4.65;;;;;;;;;;10345033;28;20049;-83
2023/11/26 18:52:57;;;;;;;7.78;4.10;;;;;;;;;;10341874;28;20475;-83
2023/11/26 18:58:00;;;;;;;8.55;4.03;;;;;;;;;;10340685;28;20141;-83
2023/11/26 19:03:04;;;;;;;8.23;4.55;;;;;;;;;;10359891;28;20121;-83
2023/11/26 19:08:09;;;;;;;8.70;4.90;;;;;;;;;;10343161;28;20054;-83
2023/11/26 19:13:13;;;;;;;13.25;7.20;;;;;;;;;;10337003;28;20119;-83
2023/11/26 19:18:17;;;;;;;15.50;7.28;;;;;;;;;;10343029;28;20145;-83
2023/11/26 19:23:22;;;;;;;9.90;6.68;;;;;;;;;;10348809;28;20054;-83
2023/11/26 19:28:28;;;;;;;5.18;3.90;;;;;;;;;;10361086;28;20081;-83
2023/11/26 19:33:32;;;;;;;9.13;5.72;;;;;;;;;;10349905;28;20081;-83
2023/11/26 19:38:36;;;;;;;7.80;4.50;;;;;;;;;;10360389;28;20088;-83
2023/11/26 19:43:41;;;;;;;9.60;5.00;;;;;;;;;;10363849;28;20069;-83
2023/11/26 19:48:46;;;;;;;10.73;4.97;;;;;;;;;;10360235;28;20058;-83
2023/11/26 19:53:53;;;;;;;9.95;5.00;;;;;;;;;;10346713;28;20080;-83
2023/11/26 19:58:57;;;;;;;10.25;4.18;;;;;;;;;;10343959;28;20057;-83
2023/11/26 20:04:00;;;;;;;7.57;4.07;;;;;;;;;;10363874;28;20133;-83
2023/11/26 20:09:05;;;;;;;11.40;4.55;;;;;;;;;;10347358;28;20050;-83
2023/11/26 20:14:09;;;;;;;9.95;4.38;;;;;;;;;;10342343;28;20061;-83
2023/11/26 20:19:12;;;;;;;8.55;4.18;;;;;;;;;;10352482;28;20046;-82
2023/11/26 20:24:19;;;;;;;9.18;3.83;;;;;;;;;;10363107;28;20049;-83
2023/11/26 20:29:27;;;;;;;6.28;3.63;;;;;;;;;;10342020;28;20712;-83
2023/11/26 20:34:31;;;;;;;11.40;4.93;;;;;;;;;;10358050;28;20073;-82
2023/11/26 20:39:35;;;;;;;12.15;4.15;;;;;;;;;;10345525;28;20060;-83
2023/11/26 20:44:43;;;;;;;10.68;4.22;;;;;;;;;;10338538;28;20258;-83
2023/11/26 20:49:49;;;;;;;8.25;4.18;;;;;;;;;;10343056;28;20053;-82
2023/11/26 20:54:54;;;;;;;9.45;3.80;;;;;;;;;;10343899;28;20045;-82
2023/11/26 20:59:57;;;;;;;11.68;3.88;;;;;;;;;;10351537;28;20053;-82
2023/11/26 21:05:00;;;;;;;9.70;4.25;;;;;;;;;;10340948;28;20042;-82
2023/11/26 21:10:07;;;;;;;8.60;3.90;;;;;;;;;;10343544;28;20569;-83
2023/11/26 21:15:11;;;;;;;6.88;3.00;;;;;;;;;;10352305;28;20057;-83
2023/11/26 21:20:14;;;;;;;7.55;3.00;;;;;;;;;;10354032;28;20141;-82
2023/11/26 21:25:19;;;;;;;12.57;3.60;;;;;;;;;;10353779;28;20054;-82
2023/11/26 21:30:22;;;;;;;8.52;3.63;;;;;;;;;;10355649;28;20148;-82
2023/11/26 21:35:27;;;;;;;6.10;2.20;;;;;;;;;;10358689;28;20573;-82
2023/11/26 21:40:32;;;;;;;7.97;3.40;;;;;;;;;;10381052;28;20049;-82
2023/11/26 21:45:35;;;;;;;4.13;2.25;;;;;;;;;;10358440;28;20541;-81
2023/11/26 21:50:39;;;;;;;7.28;2.92;;;;;;;;;;10352995;28;20061;-82
2023/11/26 21:55:46;;;;;;;5.03;2.80;;;;;;;;;;10378815;28;20054;-83
2023/11/26 22:00:49;;;;;;;6.20;2.75;;;;;;;;;;10356186;28;20046;-82
2023/11/26 22:05:53;;;;;;;5.93;2.03;;;;;;;;;;10362637;28;20688;-82
2023/11/26 22:10:57;;;;;;;5.85;2.45;;;;;;;;;;10384263;28;20058;-81
2023/11/26 22:16:01;;;;;;;4.82;3.28;;;;;;;;;;10381617;28;20054;-81
2023/11/26 22:21:05;;;;;;;6.60;3.42;;;;;;;;;;10375739;28;20057;-82
2023/11/26 22:26:10;;;;;;;9.82;4.57;;;;;;;;;;10365316;28;20072;-82
2023/11/26 22:31:15;;;;;;;9.38;3.53;;;;;;;;;;10367714;28;20050;-82
2023/11/26 22:36:20;;;;;;;4.18;1.80;;;;;;;;;;10343311;28;20046;-83
2023/11/26 22:41:25;;;;;;;3.58;1.30;;;;;;;;;;10348928;28;20500;-82
2023/11/26 22:46:30;;;;;;;3.22;1.33;;;;;;;;;;10362435;28;20076;-82
2023/11/26 22:51:33;;;;;;;3.05;1.35;;;;;;;;;;10343113;28;20084;-82
2023/11/26 22:56:38;;;;;;;4.70;1.40;;;;;;;;;;10360345;28;20053;-81
2023/11/26 23:01:41;;;;;;;2.67;1.30;;;;;;;;;;10352059;28;20129;-81
2023/11/26 23:06:44;;;;;;;1.60;1.35;;;;;;;;;;10336292;28;20179;-82
2023/11/26 23:11:49;;;;;;;4.25;2.10;;;;;;;;;;10335858;28;20101;-82
2023/11/26 23:16:52;;;;;;;3.53;1.80;;;;;;;;;;10356449;28;20043;-82
2023/11/26 23:21:56;;;;;;;4.68;1.73;;;;;;;;;;10361362;28;20587;-83
2023/11/26 23:27:01;;;;;;;3.63;2.28;;;;;;;;;;10371316;28;20674;-82
2023/11/26 23:32:05;;;;;;;8.15;3.20;;;;;;;;;;10352726;28;20070;-82
2023/11/26 23:37:09;;;;;;;5.72;2.67;;;;;;;;;;10352874;28;20034;-82
2023/11/26 23:42:13;;;;;;;4.40;2.50;;;;;;;;;;10374162;28;20054;-83
2023/11/26 23:47:17;;;;;;;5.47;2.80;;;;;;;;;;10354908;28;20069;-81
2023/11/26 23:52:20;;;;;;;5.85;3.10;;;;;;;;;;10354490;28;20077;-81
2023/11/26 23:57:25;;;;;;;2.75;1.67;;;;;;;;;;10374917;28;20101;-83
